sensor_id;sensor_type;location;lat;lon;timestamp;P1;durP1;ratioP1;P2;durP2;ratioP2
55210;SDS011;41082;52.822;6.666;2023-03-02T00:02:09;33.55;;;22.50;;
55210;SDS011;41082;52.822;6.666;2023-03-02T00:04:43;30.60;;;20.27;;
55210;SDS011;41082;52.822;6.666;2023-03-02T00:07:13;31.65;;;21.05;;
55210;SDS011;41082;52.822;6.666;2023-03-02T00:09:47;30.17;;;20.85;;
55210;SDS011;41082;52.822;6.666;2023-03-02T00:12:12;32.60;;;20.73;;
55210;SDS011;41082;52.822;6.666;2023-03-02T00:14:39;33.00;;;21.83;;
55210;SDS011;41082;52.822;6.666;2023-03-02T00:17:05;34.53;;;22.20;;
55210;SDS011;41082;52.822;6.666;2023-03-02T00:19:32;34.70;;;22.35;;
55210;SDS011;41082;52.822;6.666;2023-03-02T00:21:58;33.28;;;21.80;;
55210;SDS011;41082;52.822;6.666;2023-03-02T00:24:23;33.25;;;22.77;;
55210;SDS011;41082;52.822;6.666;2023-03-02T00:26:49;32.63;;;22.13;;
55210;SDS011;41082;52.822;6.666;2023-03-02T00:29:14;33.92;;;23.42;;
55210;SDS011;41082;52.822;6.666;2023-03-02T00:31:40;41.10;;;24.58;;
55210;SDS011;41082;52.822;6.666;2023-03-02T00:34:06;39.22;;;24.05;;
55210;SDS011;41082;52.822;6.666;2023-03-02T00:36:31;39.03;;;24.17;;
55210;SDS011;41082;52.822;6.666;2023-03-02T00:38:57;37.00;;;24.08;;
55210;SDS011;41082;52.822;6.666;2023-03-02T00:41:23;38.40;;;25.02;;
55210;SDS011;41082;52.822;6.666;2023-03-02T00:43:49;38.72;;;25.70;;
55210;SDS011;41082;52.822;6.666;2023-03-02T00:46:15;39.33;;;26.40;;
55210;SDS011;41082;52.822;6.666;2023-03-02T00:48:43;39.25;;;25.92;;
55210;SDS011;41082;52.822;6.666;2023-03-02T00:51:10;40.88;;;25.75;;
55210;SDS011;41082;52.822;6.666;2023-03-02T00:53:35;41.10;;;26.50;;
55210;SDS011;41082;52.822;6.666;2023-03-02T00:56:01;41.25;;;25.90;;
55210;SDS011;41082;52.822;6.666;2023-03-02T00:58:28;41.33;;;26.48;;
55210;SDS011;41082;52.822;6.666;2023-03-02T01:00:54;40.78;;;26.77;;
55210;SDS011;41082;52.822;6.666;2023-03-02T01:03:20;42.67;;;27.20;;
55210;SDS011;41082;52.822;6.666;2023-03-02T01:05:46;42.47;;;25.67;;
55210;SDS011;41082;52.822;6.666;2023-03-02T01:08:12;43.03;;;26.83;;
55210;SDS011;41082;52.822;6.666;2023-03-02T01:10:38;42.92;;;25.92;;
55210;SDS011;41082;52.822;6.666;2023-03-02T01:13:05;44.47;;;27.13;;
55210;SDS011;41082;52.822;6.666;2023-03-02T01:15:31;41.75;;;26.23;;
55210;SDS011;41082;52.822;6.666;2023-03-02T01:17:58;44.05;;;26.73;;
55210;SDS011;41082;52.822;6.666;2023-03-02T01:20:24;42.78;;;27.02;;
55210;SDS011;41082;52.822;6.666;2023-03-02T01:22:50;41.85;;;26.08;;
55210;SDS011;41082;52.822;6.666;2023-03-02T01:25:16;41.35;;;26.10;;
55210;SDS011;41082;52.822;6.666;2023-03-02T01:27:42;42.55;;;25.63;;
55210;SDS011;41082;52.822;6.666;2023-03-02T01:30:07;41.65;;;26.67;;
55210;SDS011;41082;52.822;6.666;2023-03-02T01:32:34;41.25;;;25.40;;
55210;SDS011;41082;52.822;6.666;2023-03-02T01:34:59;40.70;;;25.63;;
55210;SDS011;41082;52.822;6.666;2023-03-02T01:37:25;37.22;;;24.85;;
55210;SDS011;41082;52.822;6.666;2023-03-02T01:39:51;39.10;;;24.83;;
55210;SDS011;41082;52.822;6.666;2023-03-02T01:42:17;41.33;;;24.88;;
55210;SDS011;41082;52.822;6.666;2023-03-02T01:44:44;39.08;;;25.10;;
55210;SDS011;41082;52.822;6.666;2023-03-02T01:47:13;39.78;;;25.13;;
55210;SDS011;41082;52.822;6.666;2023-03-02T01:49:52;39.20;;;25.25;;
55210;SDS011;41082;52.822;6.666;2023-03-02T01:52:30;38.33;;;24.17;;
55210;SDS011;41082;52.822;6.666;2023-03-02T01:55:00;37.17;;;23.45;;
55210;SDS011;41082;52.822;6.666;2023-03-02T01:57:31;37.20;;;23.08;;
55210;SDS011;41082;52.822;6.666;2023-03-02T01:59:59;38.50;;;24.35;;
55210;SDS011;41082;52.822;6.666;2023-03-02T02:02:31;37.22;;;24.05;;
55210;SDS011;41082;52.822;6.666;2023-03-02T02:04:56;35.40;;;23.52;;
55210;SDS011;41082;52.822;6.666;2023-03-02T02:07:22;34.17;;;22.63;;
55210;SDS011;41082;52.822;6.666;2023-03-02T02:09:49;35.08;;;22.33;;
55210;SDS011;41082;52.822;6.666;2023-03-02T02:12:18;34.22;;;22.77;;
55210;SDS011;41082;52.822;6.666;2023-03-02T02:14:46;37.13;;;22.10;;
55210;SDS011;41082;52.822;6.666;2023-03-02T02:17:12;37.65;;;23.35;;
55210;SDS011;41082;52.822;6.666;2023-03-02T02:19:44;36.80;;;22.88;;
55210;SDS011;41082;52.822;6.666;2023-03-02T02:22:41;34.20;;;21.73;;
55210;SDS011;41082;52.822;6.666;2023-03-02T02:33:29;30.42;;;19.95;;
55210;SDS011;41082;52.822;6.666;2023-03-02T02:36:00;34.30;;;21.08;;
55210;SDS011;41082;52.822;6.666;2023-03-02T02:38:31;33.03;;;21.38;;
55210;SDS011;41082;52.822;6.666;2023-03-02T02:41:00;30.98;;;19.45;;
55210;SDS011;41082;52.822;6.666;2023-03-02T02:43:28;31.67;;;20.48;;
55210;SDS011;41082;52.822;6.666;2023-03-02T02:45:56;32.72;;;22.05;;
55210;SDS011;41082;52.822;6.666;2023-03-02T02:48:23;33.58;;;21.45;;
55210;SDS011;41082;52.822;6.666;2023-03-02T02:50:51;31.38;;;21.23;;
55210;SDS011;41082;52.822;6.666;2023-03-02T02:53:40;31.30;;;19.38;;
55210;SDS011;41082;52.822;6.666;2023-03-02T02:56:12;33.95;;;20.75;;
55210;SDS011;41082;52.822;6.666;2023-03-02T02:58:40;30.02;;;19.63;;
55210;SDS011;41082;52.822;6.666;2023-03-02T03:01:13;28.83;;;19.15;;
55210;SDS011;41082;52.822;6.666;2023-03-02T03:03:42;30.55;;;19.15;;
55210;SDS011;41082;52.822;6.666;2023-03-02T03:06:19;29.63;;;18.38;;
55210;SDS011;41082;52.822;6.666;2023-03-02T03:08:54;27.70;;;16.90;;
55210;SDS011;41082;52.822;6.666;2023-03-02T03:11:32;28.58;;;18.33;;
55210;SDS011;41082;52.822;6.666;2023-03-02T03:14:04;26.90;;;18.77;;
55210;SDS011;41082;52.822;6.666;2023-03-02T03:16:37;30.23;;;19.40;;
55210;SDS011;41082;52.822;6.666;2023-03-02T03:19:05;29.77;;;19.48;;
55210;SDS011;41082;52.822;6.666;2023-03-02T03:21:35;29.52;;;17.80;;
55210;SDS011;41082;52.822;6.666;2023-03-02T03:24:01;31.23;;;17.50;;
55210;SDS011;41082;52.822;6.666;2023-03-02T03:26:27;29.40;;;17.75;;
55210;SDS011;41082;52.822;6.666;2023-03-02T03:28:52;29.73;;;17.70;;
55210;SDS011;41082;52.822;6.666;2023-03-02T03:31:21;26.65;;;17.45;;
55210;SDS011;41082;52.822;6.666;2023-03-02T03:33:47;28.52;;;17.45;;
55210;SDS011;41082;52.822;6.666;2023-03-02T03:36:13;28.83;;;18.27;;
55210;SDS011;41082;52.822;6.666;2023-03-02T03:38:39;25.00;;;17.05;;
55210;SDS011;41082;52.822;6.666;2023-03-02T03:41:04;28.60;;;17.77;;
55210;SDS011;41082;52.822;6.666;2023-03-02T03:43:30;29.05;;;17.77;;
55210;SDS011;41082;52.822;6.666;2023-03-02T03:45:56;27.70;;;18.52;;
55210;SDS011;41082;52.822;6.666;2023-03-02T03:48:21;30.38;;;17.88;;
55210;SDS011;41082;52.822;6.666;2023-03-02T03:50:47;27.88;;;17.23;;
55210;SDS011;41082;52.822;6.666;2023-03-02T03:53:12;28.48;;;16.88;;
55210;SDS011;41082;52.822;6.666;2023-03-02T03:55:38;27.70;;;17.13;;
55210;SDS011;41082;52.822;6.666;2023-03-02T03:58:04;29.52;;;17.23;;
55210;SDS011;41082;52.822;6.666;2023-03-02T04:00:29;28.55;;;18.58;;
55210;SDS011;41082;52.822;6.666;2023-03-02T04:02:55;26.85;;;17.60;;
55210;SDS011;41082;52.822;6.666;2023-03-02T04:05:20;32.55;;;18.08;;
55210;SDS011;41082;52.822;6.666;2023-03-02T04:07:46;28.85;;;18.10;;
55210;SDS011;41082;52.822;6.666;2023-03-02T04:10:12;32.30;;;18.38;;
55210;SDS011;41082;52.822;6.666;2023-03-02T04:12:38;31.65;;;18.13;;
55210;SDS011;41082;52.822;6.666;2023-03-02T04:15:05;27.92;;;17.95;;
55210;SDS011;41082;52.822;6.666;2023-03-02T04:17:36;28.92;;;18.30;;
55210;SDS011;41082;52.822;6.666;2023-03-02T04:20:02;36.05;;;18.90;;
55210;SDS011;41082;52.822;6.666;2023-03-02T04:22:31;34.33;;;19.10;;
55210;SDS011;41082;52.822;6.666;2023-03-02T04:24:57;35.42;;;18.75;;
55210;SDS011;41082;52.822;6.666;2023-03-02T04:27:23;29.83;;;18.90;;
55210;SDS011;41082;52.822;6.666;2023-03-02T04:29:48;30.77;;;19.50;;
55210;SDS011;41082;52.822;6.666;2023-03-02T04:32:17;34.35;;;20.35;;
55210;SDS011;41082;52.822;6.666;2023-03-02T04:34:43;35.22;;;19.80;;
55210;SDS011;41082;52.822;6.666;2023-03-02T04:37:09;35.83;;;18.95;;
55210;SDS011;41082;52.822;6.666;2023-03-02T04:39:34;32.90;;;19.10;;
55210;SDS011;41082;52.822;6.666;2023-03-02T04:42:00;33.33;;;19.08;;
55210;SDS011;41082;52.822;6.666;2023-03-02T04:44:25;34.60;;;19.73;;
55210;SDS011;41082;52.822;6.666;2023-03-02T04:46:51;34.75;;;19.92;;
55210;SDS011;41082;52.822;6.666;2023-03-02T04:49:17;35.78;;;20.23;;
55210;SDS011;41082;52.822;6.666;2023-03-02T04:51:45;43.65;;;21.48;;
55210;SDS011;41082;52.822;6.666;2023-03-02T04:54:13;39.38;;;21.60;;
55210;SDS011;41082;52.822;6.666;2023-03-02T04:56:47;37.03;;;20.80;;
55210;SDS011;41082;52.822;6.666;2023-03-02T04:59:16;40.50;;;21.67;;
55210;SDS011;41082;52.822;6.666;2023-03-02T05:01:44;38.92;;;20.80;;
55210;SDS011;41082;52.822;6.666;2023-03-02T05:04:11;40.55;;;21.55;;
55210;SDS011;41082;52.822;6.666;2023-03-02T05:06:37;39.85;;;22.08;;
55210;SDS011;41082;52.822;6.666;2023-03-02T05:09:02;41.67;;;22.08;;
55210;SDS011;41082;52.822;6.666;2023-03-02T05:11:29;38.72;;;21.55;;
55210;SDS011;41082;52.822;6.666;2023-03-02T05:13:56;39.90;;;21.85;;
55210;SDS011;41082;52.822;6.666;2023-03-02T05:16:23;42.97;;;23.20;;
55210;SDS011;41082;52.822;6.666;2023-03-02T05:18:52;44.50;;;22.42;;
55210;SDS011;41082;52.822;6.666;2023-03-02T05:21:18;41.42;;;22.30;;
55210;SDS011;41082;52.822;6.666;2023-03-02T05:23:45;40.58;;;21.40;;
55210;SDS011;41082;52.822;6.666;2023-03-02T05:26:11;41.80;;;22.30;;
55210;SDS011;41082;52.822;6.666;2023-03-02T05:28:37;45.22;;;22.65;;
55210;SDS011;41082;52.822;6.666;2023-03-02T05:31:03;46.00;;;23.08;;
55210;SDS011;41082;52.822;6.666;2023-03-02T05:33:29;51.50;;;24.17;;
55210;SDS011;41082;52.822;6.666;2023-03-02T05:35:55;61.75;;;24.90;;
55210;SDS011;41082;52.822;6.666;2023-03-02T05:38:22;42.25;;;22.08;;
55210;SDS011;41082;52.822;6.666;2023-03-02T05:40:47;47.58;;;22.77;;
55210;SDS011;41082;52.822;6.666;2023-03-02T05:43:17;51.33;;;23.70;;
55210;SDS011;41082;52.822;6.666;2023-03-02T05:45:44;48.03;;;24.52;;
55210;SDS011;41082;52.822;6.666;2023-03-02T05:48:11;49.40;;;23.92;;
55210;SDS011;41082;52.822;6.666;2023-03-02T05:50:37;50.63;;;24.98;;
55210;SDS011;41082;52.822;6.666;2023-03-02T05:53:03;134.13;;;25.50;;
55210;SDS011;41082;52.822;6.666;2023-03-02T05:55:29;49.53;;;25.80;;
55210;SDS011;41082;52.822;6.666;2023-03-02T05:57:54;48.58;;;23.75;;
55210;SDS011;41082;52.822;6.666;2023-03-02T06:00:20;44.20;;;22.77;;
55210;SDS011;41082;52.822;6.666;2023-03-02T06:02:47;44.22;;;23.23;;
55210;SDS011;41082;52.822;6.666;2023-03-02T06:05:14;50.65;;;24.15;;
55210;SDS011;41082;52.822;6.666;2023-03-02T06:07:41;51.60;;;24.45;;
55210;SDS011;41082;52.822;6.666;2023-03-02T06:10:08;47.63;;;23.67;;
55210;SDS011;41082;52.822;6.666;2023-03-02T06:12:35;51.67;;;24.52;;
55210;SDS011;41082;52.822;6.666;2023-03-02T06:15:02;55.58;;;26.60;;
55210;SDS011;41082;52.822;6.666;2023-03-02T06:17:29;53.50;;;24.10;;
55210;SDS011;41082;52.822;6.666;2023-03-02T06:19:54;53.80;;;25.27;;
55210;SDS011;41082;52.822;6.666;2023-03-02T06:22:20;51.88;;;25.45;;
55210;SDS011;41082;52.822;6.666;2023-03-02T06:24:46;52.92;;;24.52;;
55210;SDS011;41082;52.822;6.666;2023-03-02T06:27:12;52.85;;;26.52;;
55210;SDS011;41082;52.822;6.666;2023-03-02T06:29:37;54.78;;;25.33;;
55210;SDS011;41082;52.822;6.666;2023-03-02T06:32:03;53.28;;;25.10;;
55210;SDS011;41082;52.822;6.666;2023-03-02T06:34:29;48.65;;;24.45;;
55210;SDS011;41082;52.822;6.666;2023-03-02T06:36:55;49.95;;;24.70;;
55210;SDS011;41082;52.822;6.666;2023-03-02T06:39:20;49.25;;;23.38;;
55210;SDS011;41082;52.822;6.666;2023-03-02T06:41:46;48.38;;;23.80;;
55210;SDS011;41082;52.822;6.666;2023-03-02T06:44:13;48.85;;;23.95;;
55210;SDS011;41082;52.822;6.666;2023-03-02T06:46:39;54.13;;;26.50;;
55210;SDS011;41082;52.822;6.666;2023-03-02T06:49:06;45.08;;;22.23;;
55210;SDS011;41082;52.822;6.666;2023-03-02T06:51:33;43.55;;;21.33;;
55210;SDS011;41082;52.822;6.666;2023-03-02T06:53:58;41.25;;;19.88;;
55210;SDS011;41082;52.822;6.666;2023-03-02T06:56:24;45.10;;;23.10;;
55210;SDS011;41082;52.822;6.666;2023-03-02T06:58:50;37.95;;;20.63;;
55210;SDS011;41082;52.822;6.666;2023-03-02T07:01:15;39.22;;;21.27;;
55210;SDS011;41082;52.822;6.666;2023-03-02T07:03:41;39.55;;;19.58;;
55210;SDS011;41082;52.822;6.666;2023-03-02T07:06:08;37.08;;;20.17;;
55210;SDS011;41082;52.822;6.666;2023-03-02T07:08:35;33.40;;;18.30;;
55210;SDS011;41082;52.822;6.666;2023-03-02T07:11:03;36.65;;;19.90;;
55210;SDS011;41082;52.822;6.666;2023-03-02T07:13:30;36.75;;;21.17;;
55210;SDS011;41082;52.822;6.666;2023-03-02T07:15:55;34.25;;;20.33;;
55210;SDS011;41082;52.822;6.666;2023-03-02T07:18:21;36.08;;;20.52;;
55210;SDS011;41082;52.822;6.666;2023-03-02T07:20:46;35.05;;;20.58;;
55210;SDS011;41082;52.822;6.666;2023-03-02T07:23:12;34.75;;;19.40;;
55210;SDS011;41082;52.822;6.666;2023-03-02T07:25:37;36.25;;;20.85;;
55210;SDS011;41082;52.822;6.666;2023-03-02T07:28:03;31.15;;;18.98;;
55210;SDS011;41082;52.822;6.666;2023-03-02T07:30:29;30.58;;;18.17;;
55210;SDS011;41082;52.822;6.666;2023-03-02T07:32:54;33.78;;;18.40;;
55210;SDS011;41082;52.822;6.666;2023-03-02T07:35:20;36.45;;;18.50;;
55210;SDS011;41082;52.822;6.666;2023-03-02T07:37:46;31.40;;;19.23;;
55210;SDS011;41082;52.822;6.666;2023-03-02T07:40:11;34.42;;;20.08;;
55210;SDS011;41082;52.822;6.666;2023-03-02T07:42:37;35.95;;;20.48;;
55210;SDS011;41082;52.822;6.666;2023-03-02T07:45:03;38.33;;;22.77;;
55210;SDS011;41082;52.822;6.666;2023-03-02T07:47:30;36.20;;;22.70;;
55210;SDS011;41082;52.822;6.666;2023-03-02T07:49:56;47.78;;;25.48;;
55210;SDS011;41082;52.822;6.666;2023-03-02T07:52:22;38.30;;;23.27;;
55210;SDS011;41082;52.822;6.666;2023-03-02T07:54:48;42.72;;;25.58;;
55210;SDS011;41082;52.822;6.666;2023-03-02T07:57:13;34.88;;;20.20;;
55210;SDS011;41082;52.822;6.666;2023-03-02T07:59:41;38.38;;;20.55;;
55210;SDS011;41082;52.822;6.666;2023-03-02T08:02:08;31.90;;;19.90;;
55210;SDS011;41082;52.822;6.666;2023-03-02T08:04:37;33.50;;;18.55;;
55210;SDS011;41082;52.822;6.666;2023-03-02T08:07:03;44.28;;;20.83;;
55210;SDS011;41082;52.822;6.666;2023-03-02T08:09:28;31.88;;;18.95;;
55210;SDS011;41082;52.822;6.666;2023-03-02T08:11:54;31.25;;;18.13;;
55210;SDS011;41082;52.822;6.666;2023-03-02T08:14:19;32.63;;;19.40;;
55210;SDS011;41082;52.822;6.666;2023-03-02T08:16:45;30.98;;;18.98;;
55210;SDS011;41082;52.822;6.666;2023-03-02T08:19:11;28.75;;;18.25;;
55210;SDS011;41082;52.822;6.666;2023-03-02T08:21:37;31.02;;;19.10;;
55210;SDS011;41082;52.822;6.666;2023-03-02T08:24:03;39.40;;;19.92;;
55210;SDS011;41082;52.822;6.666;2023-03-02T08:26:29;29.33;;;18.73;;
55210;SDS011;41082;52.822;6.666;2023-03-02T08:28:55;31.90;;;18.67;;
55210;SDS011;41082;52.822;6.666;2023-03-02T08:31:20;31.30;;;18.90;;
55210;SDS011;41082;52.822;6.666;2023-03-02T08:33:46;28.33;;;18.13;;
55210;SDS011;41082;52.822;6.666;2023-03-02T08:36:15;26.63;;;16.73;;
55210;SDS011;41082;52.822;6.666;2023-03-02T08:38:42;29.17;;;18.33;;
55210;SDS011;41082;52.822;6.666;2023-03-02T08:41:10;28.98;;;17.88;;
55210;SDS011;41082;52.822;6.666;2023-03-02T08:43:37;33.25;;;19.50;;
55210;SDS011;41082;52.822;6.666;2023-03-02T08:46:03;31.58;;;18.27;;
55210;SDS011;41082;52.822;6.666;2023-03-02T08:48:29;34.38;;;20.33;;
55210;SDS011;41082;52.822;6.666;2023-03-02T08:51:00;37.63;;;20.40;;
55210;SDS011;41082;52.822;6.666;2023-03-02T08:53:40;31.33;;;19.13;;
55210;SDS011;41082;52.822;6.666;2023-03-02T08:56:15;29.27;;;18.45;;
55210;SDS011;41082;52.822;6.666;2023-03-02T08:58:46;29.02;;;18.02;;
55210;SDS011;41082;52.822;6.666;2023-03-02T09:01:13;28.00;;;15.93;;
55210;SDS011;41082;52.822;6.666;2023-03-02T09:03:43;27.40;;;17.00;;
55210;SDS011;41082;52.822;6.666;2023-03-02T09:06:09;25.98;;;17.00;;
55210;SDS011;41082;52.822;6.666;2023-03-02T09:08:34;27.55;;;17.15;;
55210;SDS011;41082;52.822;6.666;2023-03-02T09:11:00;27.70;;;16.98;;
55210;SDS011;41082;52.822;6.666;2023-03-02T09:13:26;25.27;;;16.25;;
55210;SDS011;41082;52.822;6.666;2023-03-02T09:15:51;26.17;;;16.25;;
55210;SDS011;41082;52.822;6.666;2023-03-02T09:18:17;25.17;;;15.90;;
55210;SDS011;41082;52.822;6.666;2023-03-02T09:20:42;25.13;;;16.60;;
55210;SDS011;41082;52.822;6.666;2023-03-02T09:23:08;26.25;;;16.15;;
55210;SDS011;41082;52.822;6.666;2023-03-02T09:25:35;26.75;;;17.38;;
55210;SDS011;41082;52.822;6.666;2023-03-02T09:28:00;29.40;;;18.88;;
55210;SDS011;41082;52.822;6.666;2023-03-02T09:30:26;27.85;;;17.92;;
55210;SDS011;41082;52.822;6.666;2023-03-02T09:32:51;29.77;;;18.25;;
55210;SDS011;41082;52.822;6.666;2023-03-02T09:35:17;27.73;;;17.38;;
55210;SDS011;41082;52.822;6.666;2023-03-02T09:37:43;27.27;;;17.65;;
55210;SDS011;41082;52.822;6.666;2023-03-02T09:40:18;28.58;;;17.17;;
55210;SDS011;41082;52.822;6.666;2023-03-02T09:45:14;27.05;;;17.77;;
55210;SDS011;41082;52.822;6.666;2023-03-02T09:56:07;26.00;;;16.77;;
55210;SDS011;41082;52.822;6.666;2023-03-02T09:58:39;29.17;;;18.17;;
55210;SDS011;41082;52.822;6.666;2023-03-02T10:01:09;26.95;;;17.67;;
55210;SDS011;41082;52.822;6.666;2023-03-02T10:03:53;27.42;;;18.70;;
55210;SDS011;41082;52.822;6.666;2023-03-02T10:06:23;27.35;;;18.20;;
55210;SDS011;41082;52.822;6.666;2023-03-02T10:08:49;29.30;;;19.35;;
55210;SDS011;41082;52.822;6.666;2023-03-02T10:11:21;27.63;;;19.30;;
55210;SDS011;41082;52.822;6.666;2023-03-02T10:14:11;27.50;;;17.80;;
55210;SDS011;41082;52.822;6.666;2023-03-02T10:16:48;28.60;;;18.80;;
55210;SDS011;41082;52.822;6.666;2023-03-02T10:19:21;30.27;;;18.73;;
55210;SDS011;41082;52.822;6.666;2023-03-02T10:21:57;29.80;;;18.67;;
55210;SDS011;41082;52.822;6.666;2023-03-02T10:24:37;28.67;;;19.35;;
55210;SDS011;41082;52.822;6.666;2023-03-02T10:30:05;31.73;;;19.50;;
55210;SDS011;41082;52.822;6.666;2023-03-02T10:32:35;28.63;;;17.98;;
55210;SDS011;41082;52.822;6.666;2023-03-02T10:35:13;28.23;;;19.08;;
55210;SDS011;41082;52.822;6.666;2023-03-02T10:37:45;30.45;;;19.65;;
55210;SDS011;41082;52.822;6.666;2023-03-02T10:43:28;26.45;;;17.55;;
55210;SDS011;41082;52.822;6.666;2023-03-02T10:46:06;25.92;;;17.30;;
55210;SDS011;41082;52.822;6.666;2023-03-02T10:51:23;29.48;;;18.52;;
55210;SDS011;41082;52.822;6.666;2023-03-02T10:54:12;29.02;;;19.10;;
55210;SDS011;41082;52.822;6.666;2023-03-02T10:56:40;30.05;;;18.88;;
55210;SDS011;41082;52.822;6.666;2023-03-02T11:01:58;29.88;;;19.88;;
55210;SDS011;41082;52.822;6.666;2023-03-02T11:04:25;32.42;;;20.02;;
55210;SDS011;41082;52.822;6.666;2023-03-02T11:06:51;34.80;;;21.77;;
55210;SDS011;41082;52.822;6.666;2023-03-02T11:09:17;35.42;;;21.23;;
55210;SDS011;41082;52.822;6.666;2023-03-02T11:11:53;32.20;;;20.77;;
55210;SDS011;41082;52.822;6.666;2023-03-02T11:14:20;33.78;;;20.73;;
55210;SDS011;41082;52.822;6.666;2023-03-02T11:16:47;31.73;;;19.92;;
55210;SDS011;41082;52.822;6.666;2023-03-02T11:19:16;31.60;;;20.40;;
55210;SDS011;41082;52.822;6.666;2023-03-02T11:21:58;31.60;;;19.67;;
55210;SDS011;41082;52.822;6.666;2023-03-02T11:24:47;31.17;;;19.75;;
55210;SDS011;41082;52.822;6.666;2023-03-02T11:29:50;27.73;;;18.95;;
55210;SDS011;41082;52.822;6.666;2023-03-02T11:32:38;28.05;;;18.33;;
55210;SDS011;41082;52.822;6.666;2023-03-02T11:37:49;34.58;;;19.38;;
55210;SDS011;41082;52.822;6.666;2023-03-02T11:43:00;28.80;;;19.13;;
55210;SDS011;41082;52.822;6.666;2023-03-02T11:45:30;32.92;;;20.73;;
55210;SDS011;41082;52.822;6.666;2023-03-02T11:48:04;30.92;;;19.67;;
55210;SDS011;41082;52.822;6.666;2023-03-02T11:50:39;31.52;;;19.30;;
55210;SDS011;41082;52.822;6.666;2023-03-02T11:53:15;33.83;;;20.10;;
55210;SDS011;41082;52.822;6.666;2023-03-02T11:55:45;31.77;;;19.48;;
55210;SDS011;41082;52.822;6.666;2023-03-02T11:58:21;31.40;;;20.38;;
55210;SDS011;41082;52.822;6.666;2023-03-02T12:00:49;32.03;;;19.63;;
55210;SDS011;41082;52.822;6.666;2023-03-02T12:06:27;31.92;;;20.70;;
55210;SDS011;41082;52.822;6.666;2023-03-02T12:08:33;33.55;;;20.48;;
55210;SDS011;41082;52.822;6.666;2023-03-02T12:14:04;33.08;;;20.48;;
55210;SDS011;41082;52.822;6.666;2023-03-02T12:16:39;30.83;;;19.83;;
55210;SDS011;41082;52.822;6.666;2023-03-02T12:19:13;33.08;;;20.83;;
55210;SDS011;41082;52.822;6.666;2023-03-02T12:24:22;31.75;;;20.55;;
55210;SDS011;41082;52.822;6.666;2023-03-02T12:27:03;35.72;;;20.77;;
55210;SDS011;41082;52.822;6.666;2023-03-02T12:29:39;28.83;;;18.48;;
55210;SDS011;41082;52.822;6.666;2023-03-02T12:32:26;28.92;;;18.65;;
55210;SDS011;41082;52.822;6.666;2023-03-02T12:34:55;26.67;;;17.20;;
55210;SDS011;41082;52.822;6.666;2023-03-02T12:37:30;25.98;;;17.42;;
55210;SDS011;41082;52.822;6.666;2023-03-02T12:40:23;28.30;;;17.73;;
55210;SDS011;41082;52.822;6.666;2023-03-02T12:48:28;31.30;;;19.20;;
55210;SDS011;41082;52.822;6.666;2023-03-02T12:51:00;30.73;;;19.88;;
55210;SDS011;41082;52.822;6.666;2023-03-02T12:53:28;29.15;;;18.13;;
55210;SDS011;41082;52.822;6.666;2023-03-02T12:55:54;29.77;;;19.65;;
55210;SDS011;41082;52.822;6.666;2023-03-02T12:58:24;30.88;;;19.23;;
55210;SDS011;41082;52.822;6.666;2023-03-02T13:00:56;29.80;;;19.02;;
55210;SDS011;41082;52.822;6.666;2023-03-02T13:03:24;28.40;;;18.55;;
55210;SDS011;41082;52.822;6.666;2023-03-02T13:05:51;29.88;;;19.05;;
55210;SDS011;41082;52.822;6.666;2023-03-02T13:08:26;28.08;;;17.38;;
55210;SDS011;41082;52.822;6.666;2023-03-02T13:11:02;29.00;;;18.13;;
55210;SDS011;41082;52.822;6.666;2023-03-02T13:15:57;26.10;;;16.08;;
55210;SDS011;41082;52.822;6.666;2023-03-02T13:18:27;28.13;;;16.70;;
55210;SDS011;41082;52.822;6.666;2023-03-02T13:20:57;26.42;;;16.20;;
55210;SDS011;41082;52.822;6.666;2023-03-02T13:23:28;27.10;;;17.33;;
55210;SDS011;41082;52.822;6.666;2023-03-02T13:25:57;26.33;;;16.63;;
55210;SDS011;41082;52.822;6.666;2023-03-02T13:28:31;24.67;;;15.70;;
55210;SDS011;41082;52.822;6.666;2023-03-02T13:33:46;28.15;;;16.40;;
55210;SDS011;41082;52.822;6.666;2023-03-02T13:36:16;24.95;;;15.95;;
55210;SDS011;41082;52.822;6.666;2023-03-02T13:38:48;28.02;;;16.85;;
55210;SDS011;41082;52.822;6.666;2023-03-02T13:41:24;26.73;;;15.88;;
55210;SDS011;41082;52.822;6.666;2023-03-02T13:43:51;29.60;;;16.58;;
55210;SDS011;41082;52.822;6.666;2023-03-02T13:48:53;23.30;;;15.40;;
55210;SDS011;41082;52.822;6.666;2023-03-02T13:51:34;21.10;;;13.70;;
55210;SDS011;41082;52.822;6.666;2023-03-02T13:54:13;22.75;;;13.93;;
55210;SDS011;41082;52.822;6.666;2023-03-02T13:56:40;20.90;;;12.57;;
55210;SDS011;41082;52.822;6.666;2023-03-02T13:59:11;23.73;;;13.70;;
55210;SDS011;41082;52.822;6.666;2023-03-02T14:01:38;19.77;;;13.13;;
55210;SDS011;41082;52.822;6.666;2023-03-02T14:04:05;20.52;;;12.70;;
55210;SDS011;41082;52.822;6.666;2023-03-02T14:06:34;19.58;;;12.75;;
55210;SDS011;41082;52.822;6.666;2023-03-02T14:09:00;22.13;;;13.10;;
55210;SDS011;41082;52.822;6.666;2023-03-02T14:11:26;19.35;;;12.35;;
55210;SDS011;41082;52.822;6.666;2023-03-02T14:13:56;19.58;;;12.57;;
55210;SDS011;41082;52.822;6.666;2023-03-02T14:16:22;19.52;;;12.98;;
55210;SDS011;41082;52.822;6.666;2023-03-02T14:18:48;18.70;;;11.95;;
55210;SDS011;41082;52.822;6.666;2023-03-02T14:21:20;23.15;;;12.52;;
55210;SDS011;41082;52.822;6.666;2023-03-02T14:23:47;18.20;;;12.00;;
55210;SDS011;41082;52.822;6.666;2023-03-02T14:26:18;18.85;;;12.63;;
55210;SDS011;41082;52.822;6.666;2023-03-02T14:28:52;18.55;;;12.18;;
55210;SDS011;41082;52.822;6.666;2023-03-02T14:31:18;17.33;;;10.88;;
55210;SDS011;41082;52.822;6.666;2023-03-02T14:33:43;21.33;;;12.55;;
55210;SDS011;41082;52.822;6.666;2023-03-02T14:36:12;18.75;;;11.98;;
55210;SDS011;41082;52.822;6.666;2023-03-02T14:38:42;17.85;;;10.93;;
55210;SDS011;41082;52.822;6.666;2023-03-02T14:41:19;18.88;;;11.73;;
55210;SDS011;41082;52.822;6.666;2023-03-02T14:43:47;16.27;;;10.98;;
55210;SDS011;41082;52.822;6.666;2023-03-02T14:46:13;17.35;;;11.43;;
55210;SDS011;41082;52.822;6.666;2023-03-02T14:48:39;19.85;;;11.85;;
55210;SDS011;41082;52.822;6.666;2023-03-02T14:51:11;18.55;;;11.75;;
55210;SDS011;41082;52.822;6.666;2023-03-02T14:53:40;19.70;;;11.93;;
55210;SDS011;41082;52.822;6.666;2023-03-02T14:56:07;19.17;;;11.27;;
55210;SDS011;41082;52.822;6.666;2023-03-02T14:58:35;19.27;;;11.60;;
55210;SDS011;41082;52.822;6.666;2023-03-02T15:01:01;20.52;;;11.50;;
55210;SDS011;41082;52.822;6.666;2023-03-02T15:03:27;19.25;;;11.40;;
55210;SDS011;41082;52.822;6.666;2023-03-02T15:05:53;22.80;;;12.48;;
55210;SDS011;41082;52.822;6.666;2023-03-02T15:08:19;22.83;;;12.00;;
55210;SDS011;41082;52.822;6.666;2023-03-02T15:10:46;17.15;;;10.43;;
55210;SDS011;41082;52.822;6.666;2023-03-02T15:13:13;17.25;;;11.85;;
55210;SDS011;41082;52.822;6.666;2023-03-02T15:15:40;18.25;;;11.57;;
55210;SDS011;41082;52.822;6.666;2023-03-02T15:18:07;19.13;;;11.57;;
55210;SDS011;41082;52.822;6.666;2023-03-02T15:20:33;17.55;;;10.00;;
55210;SDS011;41082;52.822;6.666;2023-03-02T15:22:59;17.80;;;11.10;;
55210;SDS011;41082;52.822;6.666;2023-03-02T15:25:26;16.50;;;10.18;;
55210;SDS011;41082;52.822;6.666;2023-03-02T15:27:53;14.27;;;9.25;;
55210;SDS011;41082;52.822;6.666;2023-03-02T15:30:20;15.73;;;10.65;;